Terminal Aerodrome Forecast
Issued by NWS Blacksburg, VA

Home | Current Version | Previous Version | Text Only | Print | Product List | Glossary On
Versions: 1 2 3 4 5 6 7 8 9 10 11 12 13 14 15 16 17 18 19 20 21 22 23 24 25 26 27 28 29 30 31 32
000
FTUS41 KRNK 210556 AAA
TAFBLF
TAF AMD
KBLF 210556Z 2106/2206 27003KT 6SM BR BKN003 OVC018
      TEMPO 2106/2109 5SM BR SCT003 BKN012
     FM211000 25003KT 1/2SM FG OVC002
     FM211400 VRB03KT P6SM BKN025=

USA.gov is the U.S. government's official web portal to all federal, state and local government web resources and services.